Time;durP1;ratioP1;P1;durP2;ratioP2;P2;SDS_P1;SDS_P2;PMS_P1;PMS_P2;Temp;Humidity;BMP_temperature;BMP_pressure;BME280_temperature;BME280_humidity;BME280_pressure;Samples;Min_cycle;Max_cycle;Signal;HPM_P1;HPM_P2
2023/07/29 00:01:48;;;;;;;;;;;;;;;18.84;74.69;99749.65;108966;1275;21988;-77
2023/07/29 00:04:49;;;;;;;;;;;;;;;18.84;74.50;99748.05;109136;1274;22124;-75
2023/07/29 00:07:36;;;;;;;;;;;;;;;18.85;74.79;99747.95;108866;1275;21985;-78
2023/07/29 00:10:40;;;;;;;;;;;;;;;18.86;74.58;99750.55;108707;1278;21973;-76
2023/07/29 00:13:29;;;;;;;;;;;;;;;18.87;74.67;99745.90;108730;1277;21968;-78
2023/07/29 00:16:37;;;;;;;;;;;;;;;;;;;;;
2023/07/29 00:19:28;;;;;;;;;;;;;;;18.90;74.56;99748.95;108539;1282;22001;-77
2023/07/29 00:22:40;;;;;;;;;;;;;;;18.92;74.48;99751.81;108509;1282;23097;-79
2023/07/29 00:25:49;;;;;;;;;;;;;;;18.93;74.55;99753.33;108521;1282;22072;-78
2023/07/29 00:28:35;;;;;;;;;;;;;;;18.93;74.48;99755.26;108661;1278;23245;-76
2023/07/29 00:31:27;;;;;;;;;;;;;;;18.92;74.50;99753.17;108806;1278;22117;-77
2023/07/29 00:34:19;;;;;;;;;;;;;;;18.92;74.44;99753.89;108899;1278;22110;-76
2023/07/29 00:37:21;;;;;;;;;;;;;;;18.89;74.39;99751.89;108829;1278;22912;-78
2023/07/29 00:40:31;;;;;;;;;;;;;;;;;;;;;
2023/07/29 00:43:12;;;;;;;;;;;;;;;18.82;74.33;99757.23;108874;1278;23772;-78
2023/07/29 00:46:02;;;;;;;;;;;;;;;18.79;74.16;99753.77;108954;1274;22973;-76
2023/07/29 00:49:11;;;;;;;;;;;;;;;18.74;74.14;99760.63;108638;1280;22049;-77
2023/07/29 00:51:52;;;;;;;;;;;;;;;18.71;74.38;99760.91;108656;1280;21992;-77
2023/07/29 00:54:39;;;;;;;;;;;;;;;18.68;74.48;99761.14;108999;1276;23801;-75
2023/07/29 00:57:58;;;;;;;;;;;;;;;18.64;74.48;99758.08;108806;1279;22024;-77
2023/07/29 01:00:59;;;;;;;;;;;;;;;18.61;74.40;99758.73;108548;1283;24344;-76
2023/07/29 01:03:48;;;;;;;;;;;;;;;18.57;74.44;99759.23;108223;1287;23075;-77
2023/07/29 01:07:10;;;;;;;;;;;;;;;18.55;74.44;99765.36;108275;1285;21978;-78
2023/07/29 01:10:43;;;;;;;;;;;;;;;18.49;74.54;99771.26;108407;1282;21979;-78
2023/07/29 01:14:25;;;;;;;;;;;;;;;18.46;74.45;99770.30;108190;1286;23722;-77
2023/07/29 01:18:07;;;;;;;;;;;;;;;18.41;74.53;99773.69;107737;1293;22461;-76
2023/07/29 01:21:05;;;;;;;;;;;;;;;18.34;74.72;99766.66;108088;1286;22081;-76
2023/07/29 01:24:21;;;;;;;;;;;;;;;18.36;74.78;99776.73;108328;1286;22005;-77
2023/07/29 01:27:09;;;;;;;;;;;;;;;18.30;74.76;99772.05;108182;1288;22739;-79
2023/07/29 01:30:37;;;;;;;;;;;;;;;;;;;;;
2023/07/29 01:33:17;;;;;;;;;;;;;;;18.22;74.86;99764.79;108543;1284;22000;-78
2023/07/29 01:36:23;;;;;;;;;;;;;;;18.19;74.92;99764.34;108769;1278;21980;-78
2023/07/29 01:39:21;;;;;;;;;;;;;;;18.13;75.00;99762.81;108889;1278;21970;-78
2023/07/29 01:42:41;;;;;;;;;;;;;;;18.09;75.00;99763.70;108722;1278;22074;-77
2023/07/29 01:45:32;;;;;;;;;;;;;;;18.04;75.08;99765.84;108761;1278;22425;-77
2023/07/29 01:48:45;;;;;;;;;;;;;;;17.99;75.09;99768.39;108493;1284;21992;-77
2023/07/29 01:51:41;;;;;;;;;;;;;;;17.94;75.01;99765.61;108525;1284;22262;-76
2023/07/29 01:54:55;;;;;;;;;;;;;;;;;;;;;
2023/07/29 01:58:01;;;;;;;;;;;;;;;17.84;75.26;99762.10;108625;1273;22293;-76
2023/07/29 02:01:15;;;;;;;;;;;;;;;17.80;75.34;99764.84;108720;1281;23712;-77
2023/07/29 02:04:15;;;;;;;;;;;;;;;17.77;75.32;99760.37;108615;1276;24314;-77
2023/07/29 02:07:19;;;;;;;;;;;;;;;17.66;75.38;99747.27;108870;1274;22007;-77
2023/07/29 02:10:33;;;;;;;;;;;;;;;17.71;75.43;99764.71;109227;1274;22013;-76
2023/07/29 02:13:39;;;;;;;;;;;;;;;17.66;75.34;99761.20;108993;1274;21981;-75
2023/07/29 02:17:00;;;;;;;;;;;;;;;17.62;75.40;99762.08;109129;1270;23052;-79
2023/07/29 02:20:14;;;;;;;;;;;;;;;17.58;75.52;99761.43;108611;1280;22790;-76
2023/07/29 02:23:22;;;;;;;;;;;;;;;17.54;75.56;99763.15;108734;1280;22059;-76
2023/07/29 02:26:24;;;;;;;;;;;;;;;17.49;75.63;99762.65;108700;1280;22036;-75
2023/07/29 02:29:13;;;;;;;;;;;;;;;17.46;75.61;99759.21;108617;1279;21973;-77
2023/07/29 02:32:06;;;;;;;;;;;;;;;17.41;75.34;99761.87;108711;1280;23771;-78
2023/07/29 02:34:59;;;;;;;;;;;;;;;17.37;75.67;99765.70;108808;1280;22013;-76
2023/07/29 02:38:00;;;;;;;;;;;;;;;17.34;75.79;99766.07;108783;1273;21967;-77
2023/07/29 02:41:09;;;;;;;;;;;;;;;17.31;75.79;99770.91;108815;1273;313459;-76
2023/07/29 02:44:02;;;;;;;;;;;;;;;17.29;76.02;99773.11;109324;1273;23331;-76
2023/07/29 02:46:39;;;;;;;;;;;;;;;17.29;76.17;99773.86;108886;1277;22337;-75
2023/07/29 02:49:13;;;;;;;;;;;;;;;17.25;76.23;99767.80;108744;1277;24125;-76
2023/07/29 02:51:56;;;;;;;;;;;;;;;17.24;76.28;99771.55;109030;1275;21999;-76
2023/07/29 02:54:43;;;;;;;;;;;;;;;17.21;76.46;99773.35;109105;1275;23689;-77
2023/07/29 02:57:55;;;;;;;;;;;;;;;17.17;76.45;99779.80;109020;1275;21987;-77
2023/07/29 03:01:27;;;;;;;;;;;;;;;;;;;;;
2023/07/29 03:04:48;;;;;;;;;;;;;;;17.13;76.67;99780.27;109279;1270;23749;-77
2023/07/29 03:11:46;;;;;;;;;;;;;;;17.08;76.92;99786.66;109535;1270;21965;-78
2023/07/29 03:15:00;;;;;;;;;;;;;;;17.08;77.15;99785.22;108913;1274;22638;-77
2023/07/29 03:17:44;;;;;;;;;;;;;;;17.09;77.04;99780.80;108835;1276;21968;-77
2023/07/29 03:21:03;;;;;;;;;;;;;;;17.10;76.93;99783.88;109102;1276;21987;-77
2023/07/29 03:24:18;;;;;;;;;;;;;;;17.10;76.87;99786.20;108461;1283;21997;-77
2023/07/29 03:27:24;;;;;;;;;;;;;;;17.07;76.89;99785.67;108512;1282;21954;-77
2023/07/29 03:30:09;;;;;;;;;;;;;;;17.06;77.21;99787.84;108209;1286;22211;-77
2023/07/29 03:32:58;;;;;;;;;;;;;;;17.07;77.29;99787.98;108431;1282;21988;-78
2023/07/29 03:36:00;;;;;;;;;;;;;;;17.05;77.27;99786.57;108496;1276;24271;-78
2023/07/29 03:39:13;;;;;;;;;;;;;;;17.02;77.45;99786.73;108414;1286;22475;-78
2023/07/29 03:42:19;;;;;;;;;;;;;;;17.04;77.43;99792.55;108439;1286;21983;-75
2023/07/29 03:45:38;;;;;;;;;;;;;;;17.07;77.59;99790.80;108000;1291;21983;-76
2023/07/29 03:49:03;;;;;;;;;;;;;;;17.12;77.86;99797.27;108003;1287;22685;-77
2023/07/29 03:52:25;;;;;;;;;;;;;;;17.20;77.98;99804.96;108241;1287;21985;-76
2023/07/29 03:55:39;;;;;;;;;;;;;;;17.27;78.12;99804.77;108225;1287;22101;-76
2023/07/29 03:58:51;;;;;;;;;;;;;;;17.35;78.14;99806.83;108154;1287;21997;-74
2023/07/29 04:01:47;;;;;;;;;;;;;;;17.41;77.93;99806.74;108096;1285;21992;-76
2023/07/29 04:04:55;;;;;;;;;;;;;;;17.43;77.91;99810.95;108701;1280;21981;-76
2023/07/29 04:07:51;;;;;;;;;;;;;;;17.47;77.97;99812.64;108556;1280;23702;-76
2023/07/29 04:10:52;;;;;;;;;;;;;;;17.52;77.99;99812.05;108579;1280;22205;-77
2023/07/29 04:13:37;;;;;;;;;;;;;;;17.58;77.83;99814.41;108434;1285;21981;-76
2023/07/29 04:16:38;;;;;;;;;;;;;;;17.63;77.87;99816.53;108440;1284;21993;-76
2023/07/29 04:19:33;;;;;;;;;;;;;;;17.65;77.57;99819.55;108278;1284;23781;-75
2023/07/29 04:22:29;;;;;;;;;;;;;;;17.66;77.44;99821.40;108530;1284;21963;-77
2023/07/29 04:25:12;;;;;;;;;;;;;;;17.71;77.48;99819.91;108498;1284;23006;-77
2023/07/29 04:28:10;;;;;;;;;;;;;;;17.82;77.81;99823.15;108507;1283;22099;-76
2023/07/29 04:31:04;;;;;;;;;;;;;;;17.94;77.83;99823.36;108541;1279;21976;-76
2023/07/29 04:33:46;;;;;;;;;;;;;;;18.04;77.72;99824.29;108611;1279;22929;-77
2023/07/29 04:36:46;;;;;;;;;;;;;;;18.20;78.09;99820.98;109013;1270;23621;-77
2023/07/29 04:39:29;;;;;;;;;;;;;;;18.40;78.07;99818.56;109553;1268;24529;-77
2023/07/29 04:42:08;;;;;;;;;;;;;;;18.56;77.73;99816.70;109404;1270;21964;-75
2023/07/29 04:45:02;;;;;;;;;;;;;;;18.64;77.12;99810.98;109715;1270;23747;-77
2023/07/29 04:48:08;;;;;;;;;;;;;;;18.71;76.71;99813.20;109380;1270;21997;-77
2023/07/29 04:51:04;;;;;;;;;;;;;;;18.79;76.34;99815.93;108986;1274;22170;-78
2023/07/29 04:54:11;;;;;;;;;;;;;;;18.92;76.40;99815.63;109002;1276;23115;-76
2023/07/29 04:57:12;;;;;;;;;;;;;;;19.09;76.13;99820.98;109048;1276;22011;-77
2023/07/29 05:00:12;;;;;;;;;;;;;;;19.32;76.27;99831.44;108595;1280;21980;-76
2023/07/29 05:03:15;;;;;;;;;;;;;;;19.69;76.67;99829.41;108193;1288;21986;-78
2023/07/29 05:06:04;;;;;;;;;;;;;;;20.13;76.66;99828.33;108107;1288;23090;-76
2023/07/29 05:08:41;;;;;;;;;;;;;;;20.45;74.95;99822.77;107894;1288;23037;-76
2023/07/29 05:11:26;;;;;;;;;;;;;;;20.70;74.31;99821.29;108239;1288;21986;-77
2023/07/29 05:14:06;;;;;;;;;;;;;;;21.07;74.27;99820.60;108136;1288;22012;-76
2023/07/29 05:16:53;;;;;;;;;;;;;;;21.35;72.26;99824.45;108172;1288;22073;-78
2023/07/29 05:19:36;;;;;;;;;;;;;;;21.42;70.94;99821.17;108521;1283;22004;-77
2023/07/29 05:22:30;;;;;;;;;;;;;;;21.75;71.21;99820.86;108527;1283;22535;-75
2023/07/29 05:25:03;;;;;;;;;;;;;;;22.05;70.36;99822.80;108493;1282;21955;-78
2023/07/29 05:27:48;;;;;;;;;;;;;;;22.32;69.59;99819.73;108827;1278;23068;-75
2023/07/29 05:30:26;;;;;;;;;;;;;;;22.54;68.15;99819.83;108861;1278;24307;-77
2023/07/29 05:33:26;;;;;;;;;;;;;;;22.78;68.20;99821.00;108961;1274;21987;-78
2023/07/29 05:36:16;;;;;;;;;;;;;;;23.28;67.97;99824.86;109131;1274;22232;-78
2023/07/29 05:38:51;;;;;;;;;;;;;;;23.60;66.45;99831.41;108814;1279;21987;-76
2023/07/29 05:41:38;;;;;;;;;;;;;;;23.80;64.53;99834.54;109132;1276;23714;-76
2023/07/29 05:44:31;;;;;;;;;;;;;;;23.96;63.92;99831.36;109007;1276;23522;-76
2023/07/29 05:47:10;;;;;;;;;;;;;;;24.13;63.31;99827.34;108905;1276;21969;-76
2023/07/29 05:49:40;;;;;;;;;;;;;;;24.22;62.59;99828.16;108975;1276;23066;-76
2023/07/29 05:52:30;;;;;;;;;;;;;;;24.48;63.52;99828.98;109116;1274;22372;-76
2023/07/29 05:55:18;;;;;;;;;;;;;;;24.69;61.82;99826.81;108999;1276;22011;-75
2023/07/29 05:58:09;;;;;;;;;;;;;;;24.70;60.73;99825.08;109427;1270;23605;-77
2023/07/29 06:00:48;;;;;;;;;;;;;;;24.74;60.56;99827.77;108966;1276;23175;-78
2023/07/29 06:03:28;;;;;;;;;;;;;;;24.94;61.67;99826.24;109007;1275;21973;-77
2023/07/29 06:06:05;;;;;;;;;;;;;;;25.36;62.24;99825.79;108996;1276;21976;-76
2023/07/29 06:08:53;;;;;;;;;;;;;;;25.75;60.29;99828.14;109061;1276;23754;-77
2023/07/29 06:11:30;;;;;;;;;;;;;;;25.86;58.58;99831.20;108940;1276;23628;-77
2023/07/29 06:14:15;;;;;;;;;;;;;;;26.08;58.63;99836.14;108611;1280;21979;-76
2023/07/29 06:16:54;;;;;;;;;;;;;;;26.19;57.23;99834.16;108647;1280;22030;-76
2023/07/29 06:19:39;;;;;;;;;;;;;;;26.25;57.26;99836.85;108437;1282;23077;-76
2023/07/29 06:22:31;;;;;;;;;;;;;;;26.42;57.12;99833.52;108610;1282;22344;-76
2023/07/29 06:25:09;;;;;;;;;;;;;;;26.77;58.09;99829.80;108541;1282;21997;-76
2023/07/29 06:27:43;;;;;;;;;;;;;;;27.22;57.35;99829.45;108596;1282;23628;-77
2023/07/29 06:30:16;;;;;;;;;;;;;;;27.49;55.92;99834.33;108377;1286;21998;-76
2023/07/29 06:32:49;;;;;;;;;;;;;;;27.74;55.43;99838.68;108647;1280;23650;-78
2023/07/29 06:35:23;;;;;;;;;;;;;;;27.87;54.53;99839.67;108856;1280;23084;-81
2023/07/29 06:37:58;;;;;;;;;;;;;;;27.99;53.26;99839.09;108938;1274;23005;-76
2023/07/29 06:40:33;;;;;;;;;;;;;;;28.07;52.67;99840.33;108832;1278;23135;-77
2023/07/29 06:43:10;;;;;;;;;;;;;;;27.98;52.02;99841.77;108756;1278;22078;-77
2023/07/29 06:45:42;;;;;;;;;;;;;;;27.77;51.93;99846.73;108900;1277;21990;-77
2023/07/29 06:48:11;;;;;;;;;;;;;;;27.38;51.60;99837.39;108582;1282;23014;-77
2023/07/29 06:50:42;;;;;;;;;;;;;;;27.06;52.27;99835.52;108659;1282;23059;-77
2023/07/29 06:53:18;;;;;;;;;;;;;;;27.04;53.82;99830.06;108231;1288;23049;-76
2023/07/29 06:55:51;;;;;;;;;;;;;;;27.26;54.18;99828.77;108474;1285;21988;-78
2023/07/29 06:58:26;;;;;;;;;;;;;;;27.46;53.75;99827.91;108312;1285;21985;-77
2023/07/29 07:00:54;;;;;;;;;;;;;;;27.51;52.71;99820.47;108492;1285;22048;-76
2023/07/29 07:03:26;;;;;;;;;;;;;;;27.66;52.41;99827.09;108516;1285;21982;-78
2023/07/29 07:05:57;;;;;;;;;;;;;;;27.99;53.30;99827.52;108570;1280;21984;-78
2023/07/29 07:08:33;;;;;;;;;;;;;;;28.50;53.13;99824.81;108653;1279;21987;-78
2023/07/29 07:11:48;;;;;;;;;;;;;;;28.81;51.24;99824.42;108894;1274;22067;-81
2023/07/29 07:15:06;;;;;;;;;;;;;;;29.14;49.92;99823.05;109117;1275;21990;-79
2023/07/29 07:20:54;;;;;;;;;;;;;;;29.59;48.41;99818.65;109126;1276;21975;-76
2023/07/29 07:23:25;;;;;;;;;;;;;;;29.69;47.74;99818.63;108981;1267;22224;-76
2023/07/29 07:25:55;;;;;;;;;;;;;;;29.71;47.39;99816.41;109088;1276;23751;-76
2023/07/29 07:28:26;;;;;;;;;;;;;;;29.77;47.63;99814.75;108947;1276;22889;-77
2023/07/29 07:30:55;;;;;;;;;;;;;;;29.88;47.08;99814.34;109162;1276;21990;-76
2023/07/29 07:33:29;;;;;;;;;;;;;;;29.89;46.81;99811.39;108951;1275;21969;-76
2023/07/29 07:36:04;;;;;;;;;;;;;;;29.89;47.05;99809.86;108926;1276;22109;-77
2023/07/29 07:38:45;;;;;;;;;;;;;;;30.00;47.07;99808.73;108797;1275;21989;-76
2023/07/29 07:41:18;;;;;;;;;;;;;;;30.10;46.81;99810.84;109257;1275;23392;-77
2023/07/29 07:43:49;;;;;;;;;;;;;;;30.23;46.34;99812.30;109114;1275;25126;-76
2023/07/29 07:46:45;;;;;;;;;;;;;;;30.30;45.77;99811.95;108662;1280;21985;-77
2023/07/29 07:49:22;;;;;;;;;;;;;;;30.30;45.33;99810.67;108440;1286;22188;-75
2023/07/29 07:52:06;;;;;;;;;;;;;;;;;;;;;
2023/07/29 07:54:52;;;;;;;;;;;;;;;29.51;44.77;99810.19;108458;1280;21997;-77
2023/07/29 07:57:33;;;;;;;;;;;;;;;29.26;46.04;99811.14;108498;1282;23171;-80
2023/07/29 08:00:15;;;;;;;;;;;;;;;28.96;46.35;99810.45;108550;1282;23085;-76
2023/07/29 08:03:01;;;;;;;;;;;;;;;28.83;47.04;99813.80;108613;1282;21990;-76
2023/07/29 08:05:50;;;;;;;;;;;;;;;28.74;46.72;99814.85;108992;1275;21967;-77
2023/07/29 08:08:35;;;;;;;;;;;;;;;28.66;46.79;99816.06;108874;1276;21979;-78
2023/07/29 08:11:10;;;;;;;;;;;;;;;28.46;46.72;99817.23;108754;1276;21971;-76
2023/07/29 08:13:40;;;;;;;;;;;;;;;28.11;47.01;99814.70;108880;1276;23064;-75
2023/07/29 08:16:21;;;;;;;;;;;;;;;27.84;47.30;99816.44;108957;1276;21979;-76
2023/07/29 08:18:50;;;;;;;;;;;;;;;27.65;47.99;99819.94;108967;1276;21984;-76
2023/07/29 08:21:21;;;;;;;;;;;;;;;27.56;48.50;99818.34;108923;1276;22013;-76
2023/07/29 08:24:13;;;;;;;;;;;;;;;27.39;48.19;99819.30;109020;1276;22274;-77
2023/07/29 08:26:47;;;;;;;;;;;;;;;27.14;48.68;99814.03;108857;1276;23625;-76
2023/07/29 08:29:38;;;;;;;;;;;;;;;27.11;49.79;99811.98;109039;1276;21966;-77
2023/07/29 08:32:09;;;;;;;;;;;;;;;27.19;50.14;99808.30;108872;1278;22198;-77
2023/07/29 08:34:43;;;;;;;;;;;;;;;27.47;50.93;99807.55;108861;1278;22764;-75
2023/07/29 08:37:21;;;;;;;;;;;;;;;27.91;50.68;99798.02;108910;1278;23025;-76
2023/07/29 08:39:54;;;;;;;;;;;;;;;28.26;49.22;99797.95;108540;1285;22921;-75
2023/07/29 08:42:34;;;;;;;;;;;;;;;28.43;48.65;99792.88;108136;1288;21994;-75
2023/07/29 08:45:08;;;;;;;;;;;;;;;28.57;48.05;99787.23;107783;1291;23815;-77
2023/07/29 08:47:39;;;;;;;;;;;;;;;28.74;47.78;99793.17;108121;1291;21988;-76
2023/07/29 08:50:20;;;;;;;;;;;;;;;28.93;47.67;99786.02;108035;1291;23743;-75
2023/07/29 08:52:55;;;;;;;;;;;;;;;29.17;46.93;99779.54;107932;1290;22387;-76
2023/07/29 08:55:40;;;;;;;;;;;;;;;29.40;46.07;99775.85;108045;1290;23239;-76
2023/07/29 08:58:10;;;;;;;;;;;;;;;29.33;44.32;99774.46;107967;1289;22025;-76
2023/07/29 09:00:49;;;;;;;;;;;;;;;;;;;;;
2023/07/29 09:03:32;;;;;;;;;;;;;;;28.75;45.58;99772.40;108528;1278;22015;-76
2023/07/29 09:06:17;;;;;;;;;;;;;;;28.60;45.76;99773.83;108842;1277;22152;-77
2023/07/29 09:08:53;;;;;;;;;;;;;;;28.57;46.39;99772.08;108627;1276;21981;-78
2023/07/29 09:11:26;;;;;;;;;;;;;;;28.65;46.26;99764.98;108615;1279;22748;-76
2023/07/29 09:13:58;;;;;;;;;;;;;;;28.60;45.52;99764.27;108830;1279;22013;-77
2023/07/29 09:16:27;;;;;;;;;;;;;;;28.47;45.66;99757.73;108935;1275;22506;-79
2023/07/29 09:19:05;;;;;;;;;;;;;;;28.46;46.15;99754.34;108814;1278;21978;-77
2023/07/29 09:21:40;;;;;;;;;;;;;;;28.48;45.63;99751.27;108571;1281;23145;-77
2023/07/29 09:24:18;;;;;;;;;;;;;;;28.35;45.31;99752.69;108840;1281;21979;-76
2023/07/29 09:29:51;;;;;;;4.50;1.80;;;;;;;28.62;46.11;99756.41;107933;1289;544279;-77
2023/07/29 09:32:37;;;;;;;2.60;1.60;;;;;;;28.52;44.98;99758.27;110552;1260;24376;-75
2023/07/29 09:35:26;;;;;;;;;;;;;;;;;;;;;
2023/07/29 09:38:25;;;;;;;18.60;4.90;;;;;;;28.16;44.74;99744.79;110534;1260;24301;-76
2023/07/29 09:41:18;;;;;;;6.20;2.90;;;;;;;28.26;44.47;99745.27;110693;1260;22490;-75
2023/07/29 09:44:20;;;;;;;9.50;2.70;;;;;;;28.33;44.16;99742.79;110539;1258;376697;-74
2023/07/29 09:47:39;;;;;;;4.50;2.20;;;;;;;28.54;44.49;99739.84;110580;1263;24272;-82
2023/07/29 09:50:56;;;;;;;2.90;2.10;;;;;;;28.83;43.93;99745.58;109781;1267;21976;-77
2023/07/29 09:53:37;;;;;;;3.80;2.60;;;;;;;28.89;43.01;99746.67;110085;1267;22725;-77
2023/07/29 09:56:50;;;;;;;5.80;2.30;;;;;;;28.85;43.04;99744.45;109194;1273;21993;-77
2023/07/29 10:00:12;;;;;;;3.80;1.80;;;;;;;28.89;42.67;99743.29;109565;1273;21979;-77
2023/07/29 10:03:17;;;;;;;3.40;1.70;;;;;;;28.82;42.46;99741.20;109328;1272;21977;-77
2023/07/29 10:06:07;;;;;;;2.00;1.50;;;;;;;28.66;42.76;99741.42;109182;1273;22352;-76
2023/07/29 10:08:52;;;;;;;1.90;1.70;;;;;;;28.53;43.27;99742.59;109308;1270;22003;-77
2023/07/29 10:11:43;;;;;;;9.40;2.30;;;;;;;28.54;43.63;99743.27;109495;1272;21997;-79
2023/07/29 10:15:17;;;;;;;;;;;;;;;;;;;;;
2023/07/29 10:18:17;;;;;;;3.30;2.10;;;;;;;28.76;43.21;99738.04;109547;1269;22999;-79
2023/07/29 10:21:24;;;;;;;3.10;2.60;;;;;;;28.91;42.78;99731.66;109812;1264;21977;-79
2023/07/29 10:24:43;;;;;;;3.60;1.90;;;;;;;28.97;42.50;99729.66;110527;1261;23703;-80
2023/07/29 10:28:45;;;;;;;;;;;;;;;;;;;;;
2023/07/29 10:31:35;;;;;;;2.60;1.90;;;;;;;29.10;41.69;99721.05;110109;1259;21813;-79
2023/07/29 10:34:25;;;;;;;;;;;;;;;;;;;;;
2023/07/29 10:37:30;;;;;;;3.10;2.30;;;;;;;29.31;42.04;99713.58;110871;1262;22718;-79
2023/07/29 10:40:24;;;;;;;;;;;;;;;;;;;;;
2023/07/29 10:43:38;;;;;;;4.30;2.20;;;;;;;29.55;40.91;99709.66;110811;1256;22000;-77
2023/07/29 10:49:38;;;;;;;3.20;2.00;;;;;;;29.61;40.48;99712.09;109912;1270;22826;-81
2023/07/29 10:52:46;;;;;;;7.10;2.70;;;;;;;29.62;40.09;99704.56;109726;1270;22053;-78
2023/07/29 10:55:47;;;;;;;3.80;1.80;;;;;;;29.64;40.29;99700.61;110026;1270;22743;-79
2023/07/29 10:58:41;;;;;;;3.20;1.80;;;;;;;29.65;40.20;99696.52;109788;1270;22043;-78
2023/07/29 11:01:30;;;;;;;3.00;2.00;;;;;;;29.71;40.39;99694.33;109665;1270;23732;-78
2023/07/29 11:04:20;;;;;;;6.70;1.80;;;;;;;29.65;39.76;99692.42;109440;1273;23083;-79
2023/07/29 11:07:26;;;;;;;7.10;2.10;;;;;;;29.54;39.68;99689.02;109545;1273;21982;-77
2023/07/29 11:10:05;;;;;;;3.00;2.00;;;;;;;29.50;40.07;99683.48;109139;1274;23858;-77
2023/07/29 11:12:50;;;;;;;2.30;1.80;;;;;;;29.44;39.61;99675.89;109318;1275;21994;-82
2023/07/29 11:15:34;;;;;;;1.90;1.70;;;;;;;29.40;39.67;99669.40;109561;1275;22006;-81
2023/07/29 11:18:25;;;;;;;8.10;2.30;;;;;;;29.41;40.09;99670.11;109595;1274;21992;-83
2023/07/29 11:20:58;;;;;;;8.30;2.20;;;;;;;29.40;40.30;99661.41;109529;1273;22004;-82
2023/07/29 11:23:58;;;;;;;;;;;;;;;;;;;;;
2023/07/29 11:27:31;;;;;;;6.70;2.90;;;;;;;29.20;40.31;99661.03;108954;1283;21999;-82
2023/07/29 11:35:01;;;;;;;3.00;1.90;;;;;;;29.00;41.39;99642.48;108260;1290;22015;-80
2023/07/29 11:37:52;;;;;;;28.20;3.50;;;;;;;29.02;40.72;99640.43;108392;1290;23631;-80
2023/07/29 11:41:29;;;;;;;9.00;2.90;;;;;;;28.90;40.43;99641.95;108510;1287;22329;-79
2023/07/29 11:44:45;;;;;;;4.60;2.60;;;;;;;28.70;40.59;99645.86;108137;1293;22019;-81
2023/07/29 11:47:42;;;;;;;3.00;1.70;;;;;;;28.71;40.60;99644.67;107929;1290;22019;-81
2023/07/29 11:50:36;;;;;;;7.50;2.00;;;;;;;28.82;40.25;99637.58;108181;1289;23780;-79
2023/07/29 11:53:42;;;;;;;3.60;1.60;;;;;;;28.97;40.54;99628.36;108192;1291;22133;-81
2023/07/29 11:56:20;;;;;;;3.00;1.90;;;;;;;29.12;40.39;99627.79;107644;1296;22021;-81
2023/07/29 11:59:57;;;;;;;;;;;;;;;;;;;;;
2023/07/29 12:03:10;;;;;;;3.50;2.00;;;;;;;29.36;39.91;99620.17;107627;1300;22379;-83
2023/07/29 12:06:14;;;;;;;3.00;2.10;;;;;;;29.49;39.36;99617.22;107076;1301;22032;-82
2023/07/29 12:09:07;;;;;;;4.40;1.50;;;;;;;29.63;39.35;99616.98;107057;1295;22036;-82
2023/07/29 12:11:45;;;;;;;12.90;2.80;;;;;;;29.67;38.71;99609.99;107296;1298;22097;-80
2023/07/29 12:14:51;;;;;;;3.30;1.70;;;;;;;29.61;38.97;99595.80;107385;1298;22146;-78
2023/07/29 12:17:58;;;;;;;2.70;1.50;;;;;;;29.60;38.79;99601.58;107189;1298;22481;-82
2023/07/29 12:20:57;;;;;;;4.30;1.60;;;;;;;29.50;38.83;99598.61;107587;1297;22007;-83
2023/07/29 12:23:51;;;;;;;2.30;1.80;;;;;;;29.46;39.17;99594.70;108024;1288;22026;-82
2023/07/29 12:26:52;;;;;;;;;;;;;;;;;;;;;
2023/07/29 12:30:22;;;;;;;7.70;1.70;;;;;;;29.23;39.34;99586.69;108512;1283;22008;-84
2023/07/29 12:33:05;;;;;;;;;;;;;;;;;;;;;
2023/07/29 12:36:54;;;;;;;2.80;1.30;;;;;;;29.27;39.23;99580.96;108743;1280;22009;-83
2023/07/29 12:40:30;;;;;;;1.50;0.90;;;;;;;29.29;38.95;99573.86;108825;1279;22004;-79
2023/07/29 12:43:42;;;;;;;3.50;1.70;;;;;;;29.33;38.72;99575.51;109109;1276;22949;-82
2023/07/29 12:46:56;;;;;;;2.30;1.50;;;;;;;29.32;38.95;99570.31;109251;1273;21996;-81
2023/07/29 12:49:46;;;;;;;3.10;1.40;;;;;;;29.29;38.64;99569.64;109177;1272;23785;-81
2023/07/29 12:53:33;;;;;;;;;;;;;;;;;;;;;
2023/07/29 12:56:30;;;;;;;2.60;1.10;;;;;;;29.10;38.73;99567.56;109271;1273;22017;-83
2023/07/29 13:03:56;;;;;;;2.40;1.10;;;;;;;29.15;39.23;99561.41;109164;1276;24556;-83
2023/07/29 13:06:43;;;;;;;6.00;4.00;;;;;;;29.19;39.43;99554.54;109264;1274;22595;-82
2023/07/29 13:10:31;;;;;;;;;;;;;;;;;;;;;
2023/07/29 13:13:47;;;;;;;3.20;1.00;;;;;;;29.29;38.75;99544.84;109149;1276;23079;-83
2023/07/29 13:17:02;;;;;;;1.30;1.20;;;;;;;29.27;38.21;99540.90;108966;1278;23745;-81
2023/07/29 13:21:04;;;;;;;2.00;1.50;;;;;;;29.24;38.58;99539.32;108792;1283;22006;-83
2023/07/29 13:24:47;;;;;;;;;;;;;;;;;;;;;
2023/07/29 13:28:07;;;;;;;2.00;1.80;;;;;;;29.35;38.48;99528.13;108831;1276;22363;-85
2023/07/29 13:31:03;;;;;;;2.40;1.50;;;;;;;29.46;38.42;99515.60;108831;1280;22116;-81
2023/07/29 13:34:26;;;;;;;3.80;1.30;;;;;;;29.51;38.12;99511.02;108831;1279;23732;-83
2023/07/29 13:37:38;;;;;;;3.90;1.40;;;;;;;29.51;38.30;99508.38;108797;1283;22005;-82
2023/07/29 13:40:53;;;;;;;;;;;;;;;;;;;;;
2023/07/29 13:51:22;;;;;;;1.90;1.30;;;;;;;29.26;38.00;99512.11;108604;1279;23062;-82
2023/07/29 13:54:43;;;;;;;1.80;1.40;;;;;;;29.24;38.22;99507.60;108804;1283;22042;-83
2023/07/29 13:58:10;;;;;;;1.70;1.10;;;;;;;29.13;38.41;99504.52;108708;1283;22002;-84
2023/07/29 14:02:25;;;;;;;;;;;;;;;;;;;;;
2023/07/29 14:05:36;;;;;;;1.70;1.40;;;;;;;29.07;38.53;99494.56;108661;1282;22028;-78
2023/07/29 14:08:18;;;;;;;9.70;2.40;;;;;;;29.09;38.64;99489.20;108780;1281;23644;-80
2023/07/29 14:11:49;;;;;;;2.50;1.60;;;;;;;29.11;38.66;99477.63;108730;1281;22133;-82
2023/07/29 14:15:15;;;;;;;5.80;1.10;;;;;;;29.07;38.40;99476.27;108614;1287;22074;-80
2023/07/29 14:19:00;;;;;;;2.00;1.30;;;;;;;29.02;37.92;99470.31;108264;1290;22020;-82
2023/07/29 14:23:07;;;;;;;4.80;1.80;;;;;;;28.94;38.05;99465.95;108556;1287;22000;-82
2023/07/29 14:27:04;;;;;;;3.80;1.90;;;;;;;28.88;38.48;99465.34;108759;1287;21897;-81
2023/07/29 14:30:24;;;;;;;;;;;;;;;;;;;;;
2023/07/29 14:33:38;;;;;;;5.40;1.60;;;;;;;28.92;38.34;99471.19;108438;1291;22000;-81
2023/07/29 14:36:40;;;;;;;2.90;2.60;;;;;;;28.94;38.44;99466.23;108378;1277;22960;-79
2023/07/29 14:39:47;;;;;;;2.40;2.20;;;;;;;28.97;38.70;99466.36;108767;1285;21998;-81
2023/07/29 14:43:05;;;;;;;;;;;;;;;29.02;38.66;99466.27;108485;1289;22892;-81
2023/07/29 14:46:20;;;;;;;3.40;2.20;;;;;;;28.97;38.65;99466.45;108357;1292;22059;-79
2023/07/29 14:49:17;;;;;;;4.40;1.90;;;;;;;29.03;38.72;99466.67;108122;1292;22355;-83
2023/07/29 14:52:11;;;;;;;2.10;1.90;;;;;;;29.09;38.60;99471.17;108278;1288;22026;-79
2023/07/29 14:59:30;;;;;;;;;;;;;;;;;;;;;
2023/07/29 15:02:41;;;;;;;8.90;2.80;;;;;;;28.91;39.05;99467.45;107785;1295;22018;-83
2023/07/29 15:05:23;;;;;;;7.10;2.30;;;;;;;28.84;39.08;99463.45;107925;1292;23753;-83
2023/07/29 15:08:37;;;;;;;5.30;1.60;;;;;;;28.87;39.04;99460.29;108060;1292;22014;-80
2023/07/29 15:11:23;;;;;;;3.30;2.10;;;;;;;28.81;39.02;99454.17;108279;1292;23087;-80
2023/07/29 15:15:00;;;;;;;;;;;;;;;;;;;;;
2023/07/29 15:18:53;;;;;;;;;;;;;;;;;;;;;
2023/07/29 15:22:12;;;;;;;4.90;2.20;;;;;;;28.68;38.43;99448.94;107567;1297;22051;-78
2023/07/29 15:25:35;;;;;;;2.30;1.50;;;;;;;28.74;38.22;99450.21;107077;1300;21935;-80
2023/07/29 15:29:21;;;;;;;2.20;1.90;;;;;;;28.83;38.09;99456.29;107637;1296;23836;-80
2023/07/29 15:32:36;;;;;;;2.80;1.40;;;;;;;28.85;38.09;99455.85;107458;1300;23755;-80
2023/07/29 15:35:32;;;;;;;1.60;1.50;;;;;;;28.88;37.92;99449.92;107249;1298;22008;-76
2023/07/29 15:38:09;;;;;;;2.70;1.20;;;;;;;28.89;37.73;99448.97;107337;1292;22741;-79
2023/07/29 15:40:42;;;;;;;5.20;1.70;;;;;;;28.94;37.73;99446.64;108156;1287;22384;-78
2023/07/29 15:43:21;;;;;;;2.10;1.70;;;;;;;28.96;37.66;99439.20;108157;1287;22071;-78
2023/07/29 15:46:01;;;;;;;3.00;2.10;;;;;;;28.95;37.54;99437.64;108179;1286;22237;-78
2023/07/29 15:49:02;;;;;;;3.40;1.60;;;;;;;28.94;37.63;99430.73;108264;1287;22001;-78